createdAt,value
2023-05-15T00:01:01.899Z,3.88
2023-05-15T00:03:30.372Z,4.18
2023-05-15T00:05:58.784Z,3.22
2023-05-15T00:08:26.913Z,3.97
2023-05-15T00:11:01.320Z,4.30
2023-05-15T00:13:30.397Z,4.25
2023-05-15T00:16:00.093Z,2.83
2023-05-15T00:18:28.397Z,3.55
2023-05-15T00:20:56.589Z,4.00
2023-05-15T00:23:24.757Z,3.25
2023-05-15T00:25:53.804Z,4.03
2023-05-15T00:28:21.979Z,5.97
2023-05-15T00:30:50.173Z,4.50
2023-05-15T00:33:19.796Z,4.68
2023-05-15T00:35:47.976Z,4.80
2023-05-15T00:38:16.208Z,4.38
2023-05-15T00:40:45.598Z,3.78
2023-05-15T00:43:14.248Z,4.22
2023-05-15T00:45:44.572Z,3.50
2023-05-15T00:48:13.102Z,4.30
2023-05-15T00:50:43.468Z,3.63
2023-05-15T00:53:12.216Z,5.18
2023-05-15T00:55:41.830Z,3.15
2023-05-15T00:58:12.101Z,4.40
2023-05-15T01:00:40.794Z,3.20
2023-05-15T01:03:09.586Z,4.20
2023-05-15T01:05:38.231Z,3.85
2023-05-15T01:08:17.236Z,5.25
2023-05-15T01:10:46.789Z,3.70
2023-05-15T01:13:16.638Z,4.05
2023-05-15T01:15:45.386Z,3.78
2023-05-15T01:18:13.702Z,3.75
2023-05-15T01:20:55.632Z,3.75
2023-05-15T01:23:40.002Z,2.88
2023-05-15T01:26:39.795Z,3.58
2023-05-15T01:29:15.724Z,3.80
2023-05-15T01:31:46.411Z,3.40
2023-05-15T01:34:15.644Z,3.33
2023-05-15T01:36:48.253Z,4.30
2023-05-15T01:39:23.106Z,4.03
2023-05-15T01:41:56.031Z,3.63
2023-05-15T01:44:31.964Z,3.58
2023-05-15T01:47:02.897Z,4.10
2023-05-15T01:49:33.139Z,3.63
2023-05-15T01:52:07.160Z,3.58
2023-05-15T01:54:37.060Z,3.25
2023-05-15T01:57:07.097Z,3.70
2023-05-15T01:59:37.843Z,6.13
2023-05-15T02:02:07.047Z,4.60
2023-05-15T02:04:36.063Z,3.95
2023-05-15T02:07:06.902Z,4.55
2023-05-15T02:09:36.102Z,3.97
2023-05-15T02:12:05.248Z,3.63
2023-05-15T02:14:34.356Z,4.70
2023-05-15T02:17:03.890Z,4.07
2023-05-15T02:19:32.128Z,4.03
2023-05-15T02:22:00.295Z,4.68
2023-05-15T02:24:28.498Z,3.97
2023-05-15T02:27:01.931Z,4.22
2023-05-15T02:29:38.023Z,5.95
2023-05-15T02:32:15.587Z,5.65
2023-05-15T02:34:52.120Z,4.82
2023-05-15T02:37:25.806Z,4.45
2023-05-15T02:39:58.050Z,4.30
2023-05-15T02:42:27.464Z,5.63
2023-05-15T02:44:56.440Z,4.25
2023-05-15T02:47:27.780Z,4.25
2023-05-15T02:49:56.253Z,5.35
2023-05-15T02:52:24.997Z,3.60
2023-05-15T02:54:53.830Z,3.65
2023-05-15T02:57:22.005Z,3.47
2023-05-15T02:59:50.160Z,3.83
2023-05-15T03:02:18.395Z,2.97
2023-05-15T03:04:48.107Z,3.25
2023-05-15T03:07:16.304Z,2.80
2023-05-15T03:09:44.601Z,3.47
2023-05-15T03:12:12.780Z,4.15
2023-05-15T03:14:40.950Z,4.93
2023-05-15T03:17:09.184Z,3.25
2023-05-15T03:19:37.366Z,3.53
2023-05-15T03:22:07.307Z,4.70
2023-05-15T03:24:35.521Z,3.63
2023-05-15T03:27:04.073Z,3.83
2023-05-15T03:29:32.233Z,3.05
2023-05-15T03:32:00.409Z,2.53
2023-05-15T03:34:28.568Z,2.63
2023-05-15T03:36:56.813Z,2.20
2023-05-15T03:39:26.497Z,2.20
2023-05-15T03:41:54.623Z,2.88
2023-05-15T03:44:22.868Z,2.25
2023-05-15T03:46:51.137Z,2.80
2023-05-15T03:49:19.323Z,4.82
2023-05-15T03:51:47.569Z,3.60
2023-05-15T03:54:15.746Z,3.17
2023-05-15T03:56:45.455Z,3.70
2023-05-15T03:59:13.641Z,2.72
2023-05-15T04:01:55.357Z,3.33
2023-05-15T04:04:29.976Z,3.00
2023-05-15T04:06:58.249Z,2.90
2023-05-15T04:09:26.503Z,3.85
2023-05-15T04:11:56.115Z,3.75
2023-05-15T04:14:24.273Z,3.97
2023-05-15T04:16:52.534Z,3.40
2023-05-15T04:19:20.913Z,5.28
2023-05-15T04:21:49.156Z,3.40
2023-05-15T04:24:17.289Z,2.97
2023-05-15T04:26:45.519Z,3.65
2023-05-15T04:29:15.146Z,3.58
2023-05-15T04:31:43.386Z,4.18
2023-05-15T04:34:11.537Z,3.00
2023-05-15T04:36:40.858Z,3.35
2023-05-15T04:39:11.182Z,2.55
2023-05-15T04:41:39.314Z,2.50
2023-05-15T04:44:08.634Z,2.50
2023-05-15T04:46:38.252Z,3.80
2023-05-15T04:49:06.840Z,2.65
2023-05-15T04:51:35.337Z,1.92
2023-05-15T04:54:03.580Z,2.17
2023-05-15T04:56:33.418Z,2.80
2023-05-15T04:59:01.546Z,1.80
2023-05-15T05:01:30.980Z,2.10
2023-05-15T05:04:00.609Z,2.53
2023-05-15T05:06:30.436Z,2.75
2023-05-15T05:08:59.299Z,2.45
2023-05-15T05:11:27.476Z,2.80
2023-05-15T05:13:55.753Z,2.20
2023-05-15T05:16:24.003Z,2.40
2023-05-15T05:18:52.285Z,2.47
2023-05-15T05:21:21.827Z,1.75
2023-05-15T05:23:49.979Z,3.50
2023-05-15T05:26:18.142Z,4.20
2023-05-15T05:28:46.295Z,2.90
2023-05-15T05:31:14.610Z,2.70
2023-05-15T05:33:42.892Z,4.35
2023-05-15T05:36:11.344Z,3.88
2023-05-15T05:38:40.972Z,2.08
2023-05-15T05:41:09.127Z,2.72
2023-05-15T05:43:37.466Z,2.80
2023-05-15T05:46:05.730Z,4.18
2023-05-15T05:48:33.931Z,3.40
2023-05-15T05:51:02.083Z,3.45
2023-05-15T05:53:30.293Z,3.20
2023-05-15T05:55:59.940Z,2.30
2023-05-15T05:58:28.181Z,3.45
2023-05-15T06:00:56.431Z,2.50
2023-05-15T06:03:25.090Z,4.88
2023-05-15T06:05:53.995Z,3.78
2023-05-15T06:08:22.201Z,2.15
2023-05-15T06:10:50.335Z,1.73
2023-05-15T06:13:20.083Z,2.25
2023-05-15T06:15:48.273Z,1.83
2023-05-15T06:18:16.493Z,2.97
2023-05-15T06:20:44.758Z,3.05
2023-05-15T06:23:12.962Z,2.40
2023-05-15T06:25:41.522Z,3.17
2023-05-15T06:28:09.677Z,1.70
2023-05-15T06:30:39.258Z,2.42
2023-05-15T06:33:07.461Z,1.73
2023-05-15T06:35:35.725Z,1.88
2023-05-15T06:38:04.059Z,2.38
2023-05-15T06:40:32.364Z,2.17
2023-05-15T06:43:00.525Z,3.15
2023-05-15T06:45:29.034Z,1.98
2023-05-15T06:48:01.480Z,2.72
2023-05-15T06:50:30.094Z,4.10
2023-05-15T06:52:59.310Z,2.10
2023-05-15T06:55:27.664Z,2.78
2023-05-15T06:57:55.942Z,2.35
2023-05-15T07:00:24.283Z,2.15
2023-05-15T07:02:52.486Z,2.30
2023-05-15T07:05:22.515Z,2.08
2023-05-15T07:07:50.825Z,2.33
2023-05-15T07:10:19.017Z,2.67
2023-05-15T07:12:47.214Z,3.17
2023-05-15T07:15:17.657Z,2.97
2023-05-15T07:17:46.010Z,3.20
2023-05-15T07:20:14.249Z,2.88
2023-05-15T07:22:54.983Z,5.32
2023-05-15T07:25:25.385Z,3.13
2023-05-15T07:27:54.145Z,2.53
2023-05-15T07:30:23.086Z,2.25
2023-05-15T07:32:51.492Z,1.85
2023-05-15T07:35:19.736Z,2.35
2023-05-15T07:37:49.289Z,2.10
2023-05-15T07:40:17.467Z,3.03
2023-05-15T07:42:45.814Z,2.10
2023-05-15T07:45:14.097Z,2.83
2023-05-15T07:47:44.329Z,2.33
2023-05-15T07:50:12.625Z,2.08
2023-05-15T07:52:41.398Z,2.35
2023-05-15T07:55:12.601Z,1.70
2023-05-15T07:57:40.950Z,2.05
2023-05-15T08:00:12.841Z,2.10
2023-05-15T08:02:41.562Z,2.33
2023-05-15T08:05:10.166Z,1.63
2023-05-15T08:07:38.712Z,2.58
2023-05-15T08:10:08.260Z,4.43
2023-05-15T08:12:38.120Z,3.28
2023-05-15T08:15:07.009Z,2.97
2023-05-15T08:17:35.174Z,2.05
2023-05-15T08:20:05.050Z,2.28
2023-05-15T08:22:33.237Z,2.78
2023-05-15T08:25:03.976Z,1.88
2023-05-15T08:27:32.278Z,2.55
2023-05-15T08:30:01.887Z,2.53
2023-05-15T08:32:30.174Z,2.30
2023-05-15T08:34:58.931Z,3.75
2023-05-15T08:37:27.096Z,2.58
2023-05-15T08:39:55.375Z,2.63
2023-05-15T08:42:29.485Z,2.97
2023-05-15T08:44:57.699Z,3.45
2023-05-15T08:47:28.999Z,2.85
2023-05-15T08:50:01.393Z,2.55
2023-05-15T08:52:30.589Z,2.42
2023-05-15T08:54:59.641Z,2.67
2023-05-15T08:57:28.093Z,3.10
2023-05-15T08:59:58.017Z,4.65
2023-05-15T09:02:27.662Z,2.97
2023-05-15T09:04:55.827Z,3.42
2023-05-15T09:07:24.471Z,3.60
2023-05-15T09:09:53.324Z,3.28
2023-05-15T09:12:22.845Z,4.45
2023-05-15T09:14:50.984Z,3.38
2023-05-15T09:17:19.221Z,2.40
2023-05-15T09:19:48.732Z,3.13
2023-05-15T09:22:18.385Z,3.40
2023-05-15T09:24:48.314Z,4.03
2023-05-15T09:27:16.627Z,3.08
2023-05-15T09:29:45.352Z,2.63
2023-05-15T09:32:15.996Z,3.20
2023-05-15T09:34:45.917Z,3.20
2023-05-15T09:37:30.191Z,2.70
2023-05-15T09:40:10.806Z,2.58
2023-05-15T09:42:39.765Z,2.50
2023-05-15T09:45:17.854Z,2.75
2023-05-15T09:47:47.085Z,2.22
2023-05-15T09:50:22.898Z,2.35
2023-05-15T09:52:52.880Z,2.30
2023-05-15T09:55:22.893Z,2.42
2023-05-15T09:58:08.006Z,2.67
2023-05-15T10:00:36.934Z,4.10
2023-05-15T10:03:18.803Z,2.53
2023-05-15T10:05:47.215Z,3.22
2023-05-15T10:08:17.391Z,2.17
2023-05-15T10:10:47.185Z,2.17
2023-05-15T10:13:15.760Z,2.28
2023-05-15T10:15:44.245Z,2.20
2023-05-15T10:18:13.751Z,2.67
2023-05-15T10:20:42.454Z,2.80
2023-05-15T10:23:13.313Z,2.03
2023-05-15T10:26:03.632Z,3.17
2023-05-15T10:28:33.574Z,2.33
2023-05-15T10:31:02.779Z,2.08
2023-05-15T10:33:31.437Z,3.60
2023-05-15T10:36:00.732Z,2.25
2023-05-15T10:38:31.624Z,2.50
2023-05-15T10:41:15.812Z,2.70
2023-05-15T10:43:45.881Z,2.20
2023-05-15T10:46:15.100Z,1.95
2023-05-15T10:48:43.645Z,3.60
2023-05-15T10:51:17.545Z,2.05
2023-05-15T10:53:46.276Z,2.33
2023-05-15T10:56:17.742Z,3.75
2023-05-15T10:58:48.447Z,3.95
2023-05-15T11:01:32.062Z,6.22
2023-05-15T11:04:10.961Z,2.63
2023-05-15T11:06:40.423Z,3.40
2023-05-15T11:09:39.721Z,2.78
2023-05-15T11:12:11.777Z,2.33
2023-05-15T11:14:41.888Z,2.33
2023-05-15T11:17:11.833Z,4.28
2023-05-15T11:19:57.724Z,3.88
2023-05-15T11:22:33.598Z,3.75
2023-05-15T11:25:03.385Z,5.35
2023-05-15T11:27:34.332Z,3.35
2023-05-15T11:30:18.050Z,3.72
2023-05-15T11:32:50.994Z,2.05
2023-05-15T11:35:28.352Z,3.15
2023-05-15T11:37:57.553Z,2.97
2023-05-15T11:40:27.687Z,2.28
2023-05-15T11:43:06.553Z,2.67
2023-05-15T11:45:36.336Z,3.13
2023-05-15T11:48:06.611Z,1.67
2023-05-15T11:50:36.172Z,2.85
2023-05-15T11:53:06.392Z,2.10
2023-05-15T11:55:35.976Z,2.47
2023-05-15T11:58:06.858Z,1.67
2023-05-15T12:00:35.218Z,2.30
2023-05-15T12:03:04.757Z,2.33
2023-05-15T12:05:33.118Z,1.95
2023-05-15T12:08:03.333Z,2.22
2023-05-15T12:10:32.507Z,2.10
2023-05-15T12:13:01.433Z,2.28
2023-05-15T12:15:31.282Z,2.88
2023-05-15T12:17:59.467Z,2.42
2023-05-15T12:20:27.905Z,2.45
2023-05-15T12:22:56.096Z,2.13
2023-05-15T12:25:24.465Z,2.50
2023-05-15T12:27:52.874Z,2.00
2023-05-15T12:30:21.231Z,2.83
2023-05-15T12:32:51.300Z,2.28
2023-05-15T12:35:19.798Z,2.90
2023-05-15T12:37:48.052Z,2.08
2023-05-15T12:40:16.378Z,2.55
2023-05-15T12:42:45.834Z,2.88
2023-05-15T12:45:15.672Z,1.63
2023-05-15T12:47:45.112Z,1.90
2023-05-15T12:50:17.194Z,2.47
2023-05-15T12:53:04.297Z,2.30
2023-05-15T12:55:34.123Z,3.85
2023-05-15T12:58:06.476Z,2.03
2023-05-15T13:00:36.434Z,2.50
2023-05-15T13:03:05.825Z,2.22
2023-05-15T13:05:36.985Z,2.47
2023-05-15T13:10:36.347Z,1.88
2023-05-15T13:13:04.534Z,1.98
2023-05-15T13:15:35.291Z,2.72
2023-05-15T13:18:04.742Z,2.15
2023-05-15T13:20:36.851Z,3.67
2023-05-15T13:23:05.224Z,2.33
2023-05-15T13:25:33.491Z,1.85
2023-05-15T13:28:03.673Z,2.40
2023-05-15T13:30:33.193Z,2.03
2023-05-15T13:33:01.718Z,2.78
2023-05-15T13:35:30.166Z,2.10
2023-05-15T13:37:59.724Z,3.20
2023-05-15T13:40:28.351Z,2.05
2023-05-15T13:42:56.523Z,1.92
2023-05-15T13:45:24.823Z,2.20
2023-05-15T13:47:53.169Z,1.98
2023-05-15T13:50:21.369Z,2.20
2023-05-15T13:52:49.689Z,2.85
2023-05-15T13:55:21.437Z,2.25
2023-05-15T13:57:51.400Z,2.42
2023-05-15T14:00:20.616Z,1.90
2023-05-15T14:02:48.814Z,2.00
2023-05-15T14:05:18.121Z,3.00
2023-05-15T14:07:46.295Z,2.30
2023-05-15T14:10:14.501Z,2.35
2023-05-15T14:12:44.335Z,2.75
2023-05-15T14:15:13.026Z,1.73
2023-05-15T14:17:41.876Z,1.65
2023-05-15T14:20:11.591Z,2.15
2023-05-15T14:22:40.286Z,2.10
2023-05-15T14:25:10.120Z,1.90
2023-05-15T14:27:38.350Z,1.90
2023-05-15T14:30:09.394Z,2.20
2023-05-15T14:32:37.603Z,2.10
2023-05-15T14:35:06.519Z,3.35
2023-05-15T14:37:34.726Z,2.28
2023-05-15T14:40:03.781Z,1.98
2023-05-15T14:42:31.974Z,2.22
2023-05-15T14:45:00.205Z,2.17
2023-05-15T14:47:30.093Z,3.22
2023-05-15T14:49:58.398Z,2.03
2023-05-15T14:52:26.675Z,2.75
2023-05-15T14:55:07.842Z,2.45
2023-05-15T14:57:37.737Z,3.17
2023-05-15T15:00:07.219Z,3.22
2023-05-15T15:02:37.092Z,1.70
2023-05-15T15:05:05.765Z,1.80
2023-05-15T15:08:01.137Z,3.35
2023-05-15T15:10:29.694Z,2.83
2023-05-15T15:12:58.075Z,2.15
2023-05-15T15:15:26.980Z,2.45
2023-05-15T15:17:57.336Z,4.00
2023-05-15T15:20:26.639Z,3.77
2023-05-15T15:22:56.356Z,2.08
2023-05-15T15:25:25.457Z,1.60
2023-05-15T15:27:53.947Z,2.40
2023-05-15T15:30:22.147Z,2.00
2023-05-15T15:32:50.368Z,1.42
2023-05-15T15:35:19.947Z,1.67
2023-05-15T15:37:48.163Z,1.63
2023-05-15T15:40:16.329Z,1.15
2023-05-15T15:42:44.487Z,3.70
2023-05-15T15:45:12.716Z,1.52
2023-05-15T15:47:40.899Z,2.10
2023-05-15T15:50:09.842Z,3.78
2023-05-15T15:52:39.422Z,1.65
2023-05-15T15:55:09.097Z,1.85
2023-05-15T15:57:38.340Z,1.42
2023-05-15T16:00:08.320Z,2.08
2023-05-15T16:02:36.980Z,2.05
2023-05-15T16:05:05.819Z,1.38
2023-05-15T16:07:34.032Z,1.73
2023-05-15T16:12:38.723Z,2.65
2023-05-15T16:15:21.021Z,2.13
2023-05-15T16:17:52.703Z,2.25
2023-05-15T16:20:21.959Z,1.70
2023-05-15T16:22:50.258Z,1.30
2023-05-15T16:25:19.861Z,1.50
2023-05-15T16:27:48.034Z,1.73
2023-05-15T16:30:16.472Z,2.65
2023-05-15T16:32:44.963Z,1.65
2023-05-15T16:35:13.201Z,1.80
2023-05-15T16:37:41.374Z,2.00
2023-05-15T16:40:10.436Z,1.92
2023-05-15T16:42:41.435Z,1.60
2023-05-15T16:45:10.696Z,1.20
2023-05-15T16:47:39.971Z,1.92
2023-05-15T16:50:09.194Z,1.73
2023-05-15T16:52:38.725Z,1.95
2023-05-15T16:55:07.943Z,2.03
2023-05-15T16:57:36.183Z,1.90
2023-05-15T17:00:07.649Z,2.25
2023-05-15T17:05:04.349Z,3.40
2023-05-15T17:07:33.865Z,2.53
2023-05-15T17:10:02.038Z,3.10
2023-05-15T17:12:30.386Z,2.80
2023-05-15T17:14:58.571Z,2.78
2023-05-15T17:17:28.708Z,1.48
2023-05-15T17:19:57.184Z,2.03
2023-05-15T17:22:25.752Z,1.73
2023-05-15T17:24:53.898Z,1.67
2023-05-15T17:27:22.266Z,1.70
2023-05-15T17:29:50.575Z,1.67
2023-05-15T17:32:19.537Z,2.30
2023-05-15T17:34:50.212Z,1.95
2023-05-15T17:37:18.604Z,2.73
2023-05-15T17:39:46.805Z,1.77
2023-05-15T17:42:15.079Z,1.85
2023-05-15T17:44:43.273Z,2.22
2023-05-15T17:47:11.453Z,2.00
2023-05-15T17:49:39.830Z,2.05
2023-05-15T17:52:11.191Z,2.10
2023-05-15T17:54:39.336Z,1.48
2023-05-15T17:57:07.538Z,1.73
2023-05-15T17:59:35.801Z,1.98
2023-05-15T18:02:04.153Z,1.60
2023-05-15T18:04:32.353Z,2.40
2023-05-15T18:07:00.657Z,1.70
2023-05-15T18:09:30.208Z,1.80
2023-05-15T18:11:58.363Z,1.48
2023-05-15T18:14:26.606Z,3.55
2023-05-15T18:16:56.312Z,1.80
2023-05-15T18:19:24.512Z,1.50
2023-05-15T18:21:53.371Z,2.10
2023-05-15T18:24:21.550Z,2.38
2023-05-15T18:26:51.080Z,2.17
2023-05-15T18:29:19.268Z,1.70
2023-05-15T18:31:47.455Z,2.28
2023-05-15T18:34:15.627Z,1.92
2023-05-15T18:36:43.802Z,2.53
2023-05-15T18:39:12.337Z,2.35
2023-05-15T18:41:40.651Z,2.20
2023-05-15T18:44:10.220Z,2.60
2023-05-15T18:46:38.727Z,2.20
2023-05-15T18:49:06.988Z,2.20
2023-05-15T18:51:35.642Z,4.65
2023-05-15T18:54:03.866Z,2.20
2023-05-15T18:56:32.019Z,2.08
2023-05-15T18:59:00.208Z,2.40
2023-05-15T19:01:29.808Z,2.10
2023-05-15T19:03:58.031Z,2.53
2023-05-15T19:06:26.263Z,2.20
2023-05-15T19:08:54.460Z,3.35
2023-05-15T19:11:23.111Z,2.58
2023-05-15T19:13:51.308Z,2.45
2023-05-15T19:16:19.661Z,2.60
2023-05-15T19:18:49.235Z,3.00
2023-05-15T19:21:21.026Z,2.72
2023-05-15T19:23:49.287Z,3.20
2023-05-15T19:26:17.536Z,5.05
2023-05-15T19:28:45.673Z,7.72
2023-05-15T19:31:27.506Z,5.57
2023-05-15T19:34:00.936Z,3.90
2023-05-15T19:36:29.138Z,3.67
2023-05-15T19:38:57.319Z,3.92
2023-05-15T19:41:25.501Z,5.25
2023-05-15T19:43:53.669Z,3.47
2023-05-15T19:46:22.020Z,3.95
2023-05-15T19:48:50.218Z,3.70
2023-05-15T19:51:19.836Z,3.17
2023-05-15T19:53:48.013Z,3.60
2023-05-15T19:56:16.369Z,5.40
2023-05-15T19:58:44.969Z,2.97
2023-05-15T20:01:13.184Z,3.42
2023-05-15T20:03:41.574Z,3.45
2023-05-15T20:06:11.738Z,3.67
2023-05-15T20:08:42.013Z,5.53
2023-05-15T20:11:10.239Z,5.25
2023-05-15T20:13:39.216Z,5.70
2023-05-15T20:16:10.487Z,8.60
2023-05-15T20:18:39.678Z,6.07
2023-05-15T20:21:07.963Z,3.83
2023-05-15T20:23:36.139Z,3.40
2023-05-15T20:26:05.947Z,4.50
2023-05-15T20:28:34.159Z,7.75
2023-05-15T20:31:03.045Z,4.00
2023-05-15T20:33:31.507Z,5.05
2023-05-15T20:36:00.258Z,3.72
2023-05-15T20:38:28.513Z,6.38
2023-05-15T20:40:57.334Z,5.63
2023-05-15T20:43:26.964Z,5.60
2023-05-15T20:45:55.212Z,6.68
2023-05-15T20:48:23.524Z,5.97
2023-05-15T20:50:53.798Z,5.85
2023-05-15T20:53:22.037Z,4.50
2023-05-15T20:55:50.290Z,4.63
2023-05-15T20:58:18.458Z,7.18
2023-05-15T21:00:48.078Z,6.25
2023-05-15T21:03:17.097Z,5.65
2023-05-15T21:05:45.805Z,5.13
2023-05-15T21:08:14.049Z,4.90
2023-05-15T21:10:42.264Z,6.22
2023-05-15T21:13:10.463Z,3.88
2023-05-15T21:15:38.625Z,5.00
2023-05-15T21:18:08.241Z,3.17
2023-05-15T21:20:36.454Z,3.35
2023-05-15T21:23:04.622Z,3.83
2023-05-15T21:25:34.031Z,3.40
2023-05-15T21:28:02.256Z,3.67
2023-05-15T21:30:30.728Z,3.10
2023-05-15T21:32:59.216Z,2.90
2023-05-15T21:35:30.920Z,4.32
2023-05-15T21:40:27.298Z,2.80
2023-05-15T21:42:55.666Z,5.35
2023-05-15T21:45:23.843Z,2.70
2023-05-15T21:47:52.085Z,3.72
2023-05-15T21:50:20.446Z,4.68
2023-05-15T21:52:51.617Z,2.75
2023-05-15T21:55:20.304Z,3.13
2023-05-15T21:57:48.466Z,3.33
2023-05-15T22:00:17.397Z,4.05
2023-05-15T22:02:45.666Z,2.92
2023-05-15T22:05:14.206Z,2.75
2023-05-15T22:07:42.453Z,3.58
2023-05-15T22:10:16.419Z,5.65
2023-05-15T22:12:45.057Z,3.08
2023-05-15T22:15:14.563Z,3.72
2023-05-15T22:17:42.876Z,3.60
2023-05-15T22:20:12.371Z,2.80
2023-05-15T22:22:42.541Z,3.20
2023-05-15T22:25:12.247Z,5.47
2023-05-15T22:27:40.434Z,2.85
2023-05-15T22:30:09.846Z,3.50
2023-05-15T22:32:38.093Z,2.63
2023-05-15T22:35:07.208Z,2.88
2023-05-15T22:37:35.448Z,3.00
2023-05-15T22:40:04.211Z,2.88
2023-05-15T22:42:33.730Z,3.00
2023-05-15T22:45:01.869Z,3.00
2023-05-15T22:47:30.103Z,3.53
2023-05-15T22:49:58.282Z,2.60
2023-05-15T22:52:26.486Z,3.25
2023-05-15T22:54:54.709Z,4.57
2023-05-15T22:57:22.827Z,2.25
2023-05-15T22:59:52.383Z,2.20
2023-05-15T23:02:20.572Z,3.28
2023-05-15T23:04:49.281Z,2.40
2023-05-15T23:07:17.922Z,2.78
2023-05-15T23:09:46.107Z,2.95
2023-05-15T23:12:14.255Z,3.38
2023-05-15T23:14:42.411Z,2.83
2023-05-15T23:17:11.965Z,2.58
2023-05-15T23:19:40.124Z,2.83
2023-05-15T23:22:08.261Z,2.65
2023-05-15T23:24:36.476Z,2.75
2023-05-15T23:27:05.672Z,2.97
2023-05-15T23:29:34.799Z,3.88
2023-05-15T23:32:03.258Z,2.63
2023-05-15T23:34:32.843Z,2.30
2023-05-15T23:37:00.998Z,3.78
2023-05-15T23:39:29.168Z,2.72
2023-05-15T23:41:57.980Z,3.40
2023-05-15T23:44:26.397Z,2.50
2023-05-15T23:46:54.600Z,2.92
2023-05-15T23:49:22.877Z,2.33
2023-05-15T23:51:52.526Z,2.35
2023-05-15T23:54:21.327Z,2.72
2023-05-15T23:56:49.497Z,3.05
2023-05-15T23:59:17.721Z,2.90
